createdAt,value
2024-01-06T00:00:24.357Z,97049.09
2024-01-06T00:02:51.240Z,97037.44
2024-01-06T00:05:18.030Z,97078.56
2024-01-06T00:07:44.632Z,97081.94
2024-01-06T00:10:12.070Z,97069.59
2024-01-06T00:12:39.608Z,97065.78
2024-01-06T00:15:07.039Z,97083.88
2024-01-06T00:17:33.720Z,97092.50
2024-01-06T00:20:01.555Z,97094.44
2024-01-06T00:22:28.406Z,97090.50
2024-01-06T00:24:55.048Z,97084.50
2024-01-06T00:27:21.713Z,97098.00
2024-01-06T00:29:48.605Z,97099.50
2024-01-06T00:32:15.423Z,97093.28
2024-01-06T00:34:42.103Z,97095.53
2024-01-06T00:37:08.802Z,97093.88
2024-01-06T00:39:35.576Z,97092.53
2024-01-06T00:42:02.212Z,97095.44
2024-01-06T00:44:28.957Z,97093.00
2024-01-06T00:46:55.510Z,97093.88
2024-01-06T00:49:22.189Z,97080.44
2024-01-06T00:51:49.091Z,97090.00
2024-01-06T00:54:15.832Z,97093.16
2024-01-06T00:56:43.980Z,97096.31
2024-01-06T00:59:10.972Z,97093.00
2024-01-06T01:01:37.647Z,97093.00
2024-01-06T01:04:04.616Z,97091.47
2024-01-06T01:06:31.369Z,97105.03
2024-01-06T01:08:57.990Z,97087.44
2024-01-06T01:11:24.607Z,97090.66
2024-01-06T01:13:51.250Z,97107.44
2024-01-06T01:16:17.869Z,97089.25
2024-01-06T01:18:44.754Z,97093.28
2024-01-06T01:21:11.896Z,97095.00
2024-01-06T01:23:38.540Z,97090.88
2024-01-06T01:26:05.245Z,97080.53
2024-01-06T01:28:34.646Z,97074.88
2024-01-06T01:31:01.380Z,97076.31
2024-01-06T01:33:28.374Z,97064.53
2024-01-06T01:35:55.070Z,97062.16
2024-01-06T01:38:21.665Z,97070.94
2024-01-06T01:40:48.302Z,97051.03
2024-01-06T01:43:19.275Z,97052.25
2024-01-06T01:45:51.218Z,97048.75
2024-01-06T01:48:18.227Z,97043.19
2024-01-06T01:50:45.136Z,97039.19
2024-01-06T01:53:13.393Z,97037.63
2024-01-06T01:55:41.702Z,97031.97
2024-01-06T01:58:09.142Z,97025.63
2024-01-06T02:00:36.080Z,97017.63
2024-01-06T02:03:05.731Z,97018.72
2024-01-06T02:05:32.444Z,97016.28
2024-01-06T02:07:59.362Z,97018.19
2024-01-06T02:10:26.039Z,96994.72
2024-01-06T02:12:52.926Z,96999.38
2024-01-06T02:15:20.509Z,96990.97
2024-01-06T02:17:47.293Z,96995.66
2024-01-06T02:20:15.554Z,97002.09
2024-01-06T02:22:42.140Z,97000.59
2024-01-06T02:25:13.631Z,96999.94
2024-01-06T02:27:40.724Z,96991.00
2024-01-06T02:30:08.617Z,97002.22
2024-01-06T02:32:35.779Z,96997.66
2024-01-06T02:35:02.520Z,96998.44
2024-01-06T02:37:29.231Z,96995.44
2024-01-06T02:39:55.860Z,96992.50
2024-01-06T02:42:22.811Z,96988.81
2024-01-06T02:44:49.411Z,96987.66
2024-01-06T02:47:16.034Z,96977.66
2024-01-06T02:49:42.861Z,96979.25
2024-01-06T02:52:09.515Z,96988.09
2024-01-06T02:54:36.198Z,96982.16
2024-01-06T02:57:02.798Z,96966.72
2024-01-06T02:59:29.348Z,96971.75
2024-01-06T03:01:56.007Z,96974.53
2024-01-06T03:04:22.731Z,96980.09
2024-01-06T03:06:53.608Z,96972.97
2024-01-06T03:09:23.124Z,96975.75
2024-01-06T03:11:49.748Z,96967.06
2024-01-06T03:14:16.439Z,96971.91
2024-01-06T03:16:43.089Z,96968.38
2024-01-06T03:19:09.753Z,96959.69
2024-01-06T03:21:39.213Z,96947.22
2024-01-06T03:24:06.481Z,96971.69
2024-01-06T03:26:33.283Z,96968.53
2024-01-06T03:29:00.622Z,96968.63
2024-01-06T03:31:27.271Z,96977.38
2024-01-06T03:33:55.817Z,96976.53
2024-01-06T03:36:23.084Z,96982.09
2024-01-06T03:38:49.903Z,96980.88
2024-01-06T03:41:16.704Z,96995.22
2024-01-06T03:43:43.311Z,96987.31
2024-01-06T03:46:09.992Z,96973.44
2024-01-06T03:48:36.743Z,96976.72
2024-01-06T03:51:03.963Z,96949.97
2024-01-06T03:53:30.608Z,96962.53
2024-01-06T03:55:57.208Z,96954.91
2024-01-06T03:58:23.876Z,96964.03
2024-01-06T04:00:50.575Z,96959.44
2024-01-06T04:03:17.343Z,96941.34
2024-01-06T04:05:44.068Z,96952.97
2024-01-06T04:08:10.676Z,96945.00
2024-01-06T04:10:37.438Z,96943.56
2024-01-06T04:13:04.273Z,96947.50
2024-01-06T04:15:30.873Z,96940.63
2024-01-06T04:17:57.806Z,96947.13
2024-01-06T04:20:24.435Z,96953.81
2024-01-06T04:22:51.076Z,96942.50
2024-01-06T04:25:17.804Z,96949.31
2024-01-06T04:27:46.473Z,96937.53
2024-01-06T04:30:14.400Z,96943.94
2024-01-06T04:32:41.554Z,96943.59
2024-01-06T04:35:08.733Z,96942.38
2024-01-06T04:37:35.399Z,96944.84
2024-01-06T04:40:02.267Z,96929.44
2024-01-06T04:42:28.894Z,96936.22
2024-01-06T04:44:55.603Z,96944.97
2024-01-06T04:47:22.274Z,96944.19
2024-01-06T04:49:49.002Z,96936.22
2024-01-06T04:52:15.702Z,96928.56
2024-01-06T04:54:42.385Z,96938.78
2024-01-06T04:57:09.057Z,96929.72
2024-01-06T04:59:35.672Z,96931.63
2024-01-06T05:02:02.699Z,96929.72
2024-01-06T05:04:31.960Z,96917.00
2024-01-06T05:06:58.743Z,96902.16
2024-01-06T05:09:26.972Z,96913.88
2024-01-06T05:11:53.546Z,96913.63
2024-01-06T05:14:20.175Z,96906.41
2024-01-06T05:16:47.064Z,96897.72
2024-01-06T05:19:20.538Z,96904.81
2024-01-06T05:21:49.263Z,96901.06
2024-01-06T05:24:15.940Z,96904.22
2024-01-06T05:26:45.388Z,96900.34
2024-01-06T05:29:12.067Z,96898.44
2024-01-06T05:31:38.743Z,96894.91
2024-01-06T05:34:05.917Z,96907.94
2024-01-06T05:36:33.129Z,96889.66
2024-01-06T05:39:01.571Z,96901.19
2024-01-06T05:41:28.281Z,96895.69
2024-01-06T05:43:55.077Z,96900.63
2024-01-06T05:46:23.122Z,96906.94
2024-01-06T05:48:49.897Z,96892.53
2024-01-06T05:51:16.776Z,96905.06
2024-01-06T05:53:43.478Z,96892.81
2024-01-06T05:56:10.684Z,96898.84
2024-01-06T05:58:37.372Z,96906.59
2024-01-06T06:01:04.255Z,96889.97
2024-01-06T06:03:31.010Z,96898.66
2024-01-06T06:05:57.690Z,96889.84
2024-01-06T06:08:24.366Z,96875.72
2024-01-06T06:11:03.123Z,96885.13
2024-01-06T06:13:29.969Z,96891.41
2024-01-06T06:15:57.195Z,96889.75
2024-01-06T06:18:24.119Z,96883.06
2024-01-06T06:20:50.806Z,96891.78
2024-01-06T06:23:17.401Z,96889.22
2024-01-06T06:25:44.229Z,96885.63
2024-01-06T06:28:10.863Z,96887.19
2024-01-06T06:30:37.632Z,96885.53
2024-01-06T06:33:04.724Z,96884.34
2024-01-06T06:35:31.434Z,96882.69
2024-01-06T06:37:58.227Z,96890.19
2024-01-06T06:40:25.218Z,96879.16
2024-01-06T06:42:51.933Z,96891.78
2024-01-06T06:45:21.788Z,96833.50
2024-01-06T06:47:48.512Z,96882.81
2024-01-06T06:50:15.310Z,96882.28
2024-01-06T06:52:43.267Z,96881.94
2024-01-06T06:55:09.954Z,96871.94
2024-01-06T06:57:37.195Z,96866.72
2024-01-06T07:00:04.268Z,96873.41
2024-01-06T07:02:30.985Z,96872.75
2024-01-06T07:04:57.622Z,96877.09
2024-01-06T07:07:24.188Z,96886.38
2024-01-06T07:09:50.948Z,96881.53
2024-01-06T07:12:17.607Z,96878.25
2024-01-06T07:14:44.168Z,96894.47
2024-01-06T07:17:11.030Z,96885.19
2024-01-06T07:19:39.741Z,96892.66
2024-01-06T07:22:07.442Z,96883.38
2024-01-06T07:24:34.539Z,96892.09
2024-01-06T07:27:01.163Z,96891.25
2024-01-06T07:29:27.695Z,96892.78
2024-01-06T07:31:54.400Z,96892.66
2024-01-06T07:34:21.276Z,96869.59
2024-01-06T07:36:47.966Z,96853.63
2024-01-06T07:39:14.897Z,96908.94
2024-01-06T07:41:41.543Z,96902.09
2024-01-06T07:44:08.195Z,96897.06
2024-01-06T07:46:36.477Z,96899.16
2024-01-06T07:49:03.192Z,96906.84
2024-01-06T07:51:29.912Z,96882.31
2024-01-06T07:53:56.705Z,96897.69
2024-01-06T07:56:23.314Z,96899.06
2024-01-06T07:58:49.981Z,96903.34
2024-01-06T08:01:16.758Z,96890.75
2024-01-06T08:03:43.937Z,96883.19
2024-01-06T08:06:11.419Z,96892.72
2024-01-06T08:08:38.549Z,96885.22
2024-01-06T08:11:05.332Z,96889.81
2024-01-06T08:13:31.933Z,96874.03
2024-01-06T08:15:58.842Z,96884.38
2024-01-06T08:18:25.881Z,96888.53
2024-01-06T08:20:53.174Z,96876.94
2024-01-06T08:23:21.747Z,96879.88
2024-01-06T08:25:48.444Z,96883.03
2024-01-06T08:28:16.079Z,96882.13
2024-01-06T08:30:44.082Z,96864.25
2024-01-06T08:33:11.135Z,96874.78
2024-01-06T08:35:41.736Z,96863.53
2024-01-06T08:38:08.746Z,96861.88
2024-01-06T08:40:36.555Z,96864.09
2024-01-06T08:43:04.185Z,96857.75
2024-01-06T08:45:31.089Z,96849.91
2024-01-06T08:47:58.370Z,96847.56
2024-01-06T08:50:24.976Z,96844.44
2024-01-06T08:52:51.562Z,96848.19
2024-01-06T08:55:18.166Z,96845.91
2024-01-06T08:57:44.855Z,96849.59
2024-01-06T09:00:12.303Z,96852.44
2024-01-06T09:02:39.525Z,96840.84
2024-01-06T09:05:06.590Z,96841.69
2024-01-06T09:07:33.270Z,96839.09
2024-01-06T09:10:00.731Z,96841.91
2024-01-06T09:12:27.593Z,96835.63
2024-01-06T09:14:54.237Z,96825.06
2024-01-06T09:17:23.953Z,96827.91
2024-01-06T09:19:50.874Z,96824.91
2024-01-06T09:22:17.546Z,96825.88
2024-01-06T09:24:44.415Z,96811.38
2024-01-06T09:27:11.099Z,96815.56
2024-01-06T09:29:37.692Z,96822.44
2024-01-06T09:32:04.741Z,96810.00
2024-01-06T09:34:31.504Z,96812.16
2024-01-06T09:36:58.308Z,96802.34
2024-01-06T09:39:25.162Z,96797.84
2024-01-06T09:41:51.957Z,96789.78
2024-01-06T09:44:19.441Z,96794.47
2024-01-06T09:46:46.131Z,96791.53
2024-01-06T09:49:14.728Z,96779.09
2024-01-06T09:51:41.741Z,96773.34
2024-01-06T09:54:13.645Z,96774.44
2024-01-06T09:56:40.712Z,96766.84
2024-01-06T09:59:07.292Z,96761.81
2024-01-06T10:01:33.923Z,96761.72
2024-01-06T10:04:00.662Z,96765.56
2024-01-06T10:06:27.684Z,96764.31
2024-01-06T10:08:54.583Z,96758.78
2024-01-06T10:11:23.825Z,96756.81
2024-01-06T10:13:51.982Z,96749.75
2024-01-06T10:16:20.025Z,96747.78
2024-01-06T10:18:51.203Z,96741.19
2024-01-06T10:21:23.091Z,96741.19
2024-01-06T10:23:49.974Z,96744.88
2024-01-06T10:26:16.642Z,96747.38
2024-01-06T10:28:43.309Z,96728.72
2024-01-06T10:31:10.600Z,96723.94
2024-01-06T10:33:37.364Z,96722.69
2024-01-06T10:36:06.258Z,96717.75
2024-01-06T10:38:35.593Z,96714.03
2024-01-06T10:41:08.251Z,96701.56
2024-01-06T10:43:37.906Z,96695.56
2024-01-06T10:46:06.167Z,96707.09
2024-01-06T10:48:36.741Z,96679.03
2024-01-06T10:51:08.567Z,96679.56
2024-01-06T10:53:38.550Z,96695.69
2024-01-06T10:56:05.958Z,96675.72
2024-01-06T10:58:34.293Z,96663.19
2024-01-06T11:01:01.451Z,96674.50
2024-01-06T11:03:30.899Z,96654.09
2024-01-06T11:06:00.237Z,96654.69
2024-01-06T11:08:29.742Z,96638.59
2024-01-06T11:10:56.691Z,96628.06
2024-01-06T11:13:24.275Z,96635.88
2024-01-06T11:15:55.827Z,96621.31
2024-01-06T11:18:35.906Z,96606.94
2024-01-06T11:21:15.461Z,96616.69
2024-01-06T11:23:42.187Z,96600.41
2024-01-06T11:26:08.787Z,96597.66
2024-01-06T11:28:54.753Z,96602.50
2024-01-06T11:31:21.418Z,96604.84
2024-01-06T11:33:52.567Z,96590.69
2024-01-06T11:36:21.300Z,96585.81
2024-01-06T11:38:51.829Z,96556.69
2024-01-06T11:41:53.377Z,96542.72
2024-01-06T11:44:25.710Z,96529.00
2024-01-06T11:46:54.304Z,96542.97
2024-01-06T11:49:22.459Z,96539.97
2024-01-06T11:51:50.128Z,96566.16
2024-01-06T11:54:17.344Z,96556.84
2024-01-06T11:56:44.108Z,96555.13
2024-01-06T11:59:10.737Z,96555.84
2024-01-06T12:01:39.083Z,96555.41
2024-01-06T12:04:08.375Z,96540.38
2024-01-06T12:06:35.703Z,96536.44
2024-01-06T12:09:10.371Z,96535.44
2024-01-06T12:11:39.022Z,96535.38
2024-01-06T12:14:05.970Z,96521.72
2024-01-06T12:16:34.003Z,96524.03
2024-01-06T12:19:02.286Z,96519.38
2024-01-06T12:21:29.182Z,96512.38
2024-01-06T12:24:13.376Z,96508.16
2024-01-06T12:26:42.899Z,96496.69
2024-01-06T12:29:10.157Z,96499.78
2024-01-06T12:31:40.136Z,96498.09
2024-01-06T12:34:08.847Z,96503.28
2024-01-06T12:36:44.690Z,96496.34
2024-01-06T12:39:15.788Z,96504.53
2024-01-06T12:41:42.447Z,96511.19
2024-01-06T12:44:10.739Z,96504.53
2024-01-06T12:46:37.338Z,96498.88
2024-01-06T12:49:04.319Z,96508.81
2024-01-06T12:51:31.543Z,96501.00
2024-01-06T12:53:58.254Z,96502.22
2024-01-06T12:56:24.896Z,96489.69
2024-01-06T12:58:51.771Z,96494.94
2024-01-06T13:01:18.873Z,96477.19
2024-01-06T13:03:45.812Z,96487.84
2024-01-06T13:06:12.685Z,96504.34
2024-01-06T13:08:43.097Z,96497.44
2024-01-06T13:11:10.189Z,96485.25
2024-01-06T13:13:36.915Z,96481.38
2024-01-06T13:16:07.876Z,96476.97
2024-01-06T13:18:34.730Z,96478.47
2024-01-06T13:21:01.559Z,96473.84
2024-01-06T13:23:28.603Z,96485.13
2024-01-06T13:25:58.771Z,96484.97
2024-01-06T13:28:25.856Z,96474.66
2024-01-06T13:31:05.023Z,96469.88
2024-01-06T13:33:32.314Z,96462.91
2024-01-06T13:35:59.122Z,96473.00
2024-01-06T13:38:27.138Z,96470.59
2024-01-06T13:40:54.372Z,96466.38
2024-01-06T13:43:20.942Z,96466.94
2024-01-06T13:45:50.220Z,96457.47
2024-01-06T13:48:18.619Z,96460.13
2024-01-06T13:50:51.572Z,96457.72
2024-01-06T13:53:18.420Z,96458.06
2024-01-06T13:55:48.146Z,96445.44
2024-01-06T13:58:14.729Z,96441.56
2024-01-06T14:00:41.543Z,96435.50
2024-01-06T14:03:08.396Z,96446.22
2024-01-06T14:05:36.145Z,96460.38
2024-01-06T14:08:03.219Z,96466.00
2024-01-06T14:10:31.022Z,96455.63
2024-01-06T14:12:57.926Z,96444.63
2024-01-06T14:15:24.792Z,96452.53
2024-01-06T14:18:04.094Z,96461.56
2024-01-06T14:20:32.989Z,96460.44
2024-01-06T14:23:02.674Z,96457.41
2024-01-06T14:25:35.321Z,96452.69
2024-01-06T14:28:02.498Z,96452.13
2024-01-06T14:30:30.536Z,96453.84
2024-01-06T14:32:57.252Z,96439.81
2024-01-06T14:35:23.931Z,96455.44
2024-01-06T14:37:54.781Z,96443.06
2024-01-06T14:40:21.486Z,96445.03
2024-01-06T14:42:50.996Z,96454.16
2024-01-06T14:45:19.557Z,96444.28
2024-01-06T14:47:48.357Z,96450.88
2024-01-06T14:50:16.652Z,96437.53
2024-01-06T14:52:43.082Z,96443.53
2024-01-06T14:55:11.199Z,96434.41
2024-01-06T14:57:38.046Z,96436.50
2024-01-06T15:00:08.940Z,96437.53
2024-01-06T15:02:35.500Z,96437.94
2024-01-06T15:05:02.372Z,96438.69
2024-01-06T15:07:28.986Z,96433.63
2024-01-06T15:09:55.713Z,96440.38
2024-01-06T15:12:22.485Z,96431.91
2024-01-06T15:14:49.107Z,96429.66
2024-01-06T15:17:15.769Z,96424.91
2024-01-06T15:19:42.735Z,96428.84
2024-01-06T15:22:09.497Z,96417.41
2024-01-06T15:24:36.125Z,96419.91
2024-01-06T15:27:03.045Z,96399.66
2024-01-06T15:29:29.647Z,96400.66
2024-01-06T15:31:59.576Z,96404.16
2024-01-06T15:34:26.575Z,96399.78
2024-01-06T15:36:53.547Z,96391.78
2024-01-06T15:39:20.299Z,96403.13
2024-01-06T15:41:46.986Z,96399.00
2024-01-06T15:44:13.566Z,96395.06
2024-01-06T15:46:46.003Z,96400.63
2024-01-06T15:49:13.064Z,96409.41
2024-01-06T15:51:42.977Z,96399.16
2024-01-06T15:54:09.792Z,96402.06
2024-01-06T15:56:36.398Z,96404.88
2024-01-06T15:59:03.025Z,96408.09
2024-01-06T16:01:30.218Z,96408.47
2024-01-06T16:03:56.925Z,96407.88
2024-01-06T16:06:23.732Z,96408.75
2024-01-06T16:08:53.578Z,96411.34
2024-01-06T16:11:20.152Z,96410.91
2024-01-06T16:13:46.793Z,96408.09
2024-01-06T16:16:14.629Z,96410.00
2024-01-06T16:18:41.494Z,96411.94
2024-01-06T16:21:08.408Z,96403.41
2024-01-06T16:23:35.231Z,96399.34
2024-01-06T16:26:02.058Z,96390.81
2024-01-06T16:28:28.632Z,96393.91
2024-01-06T16:30:55.661Z,96395.56
2024-01-06T16:33:22.484Z,96392.19
2024-01-06T16:35:49.369Z,96390.25
2024-01-06T16:38:15.917Z,96385.19
2024-01-06T16:40:42.544Z,96389.66
2024-01-06T16:43:09.322Z,96388.28
2024-01-06T16:45:36.092Z,96390.25
2024-01-06T16:48:02.917Z,96395.47
2024-01-06T16:50:29.603Z,96386.28
2024-01-06T16:52:56.181Z,96373.56
2024-01-06T16:55:23.085Z,96370.47
2024-01-06T16:57:49.713Z,96372.78
2024-01-06T17:00:19.517Z,96380.34
2024-01-06T17:02:46.189Z,96375.81
2024-01-06T17:05:13.028Z,96380.72
2024-01-06T17:07:42.350Z,96366.66
2024-01-06T17:10:09.324Z,96362.91
2024-01-06T17:12:36.064Z,96363.78
2024-01-06T17:15:02.793Z,96358.03
2024-01-06T17:17:29.952Z,96360.47
2024-01-06T17:19:57.343Z,96363.28
2024-01-06T17:22:23.906Z,96358.94
2024-01-06T17:24:50.566Z,96355.44
2024-01-06T17:27:17.251Z,96356.50
2024-01-06T17:29:51.783Z,96350.88
2024-01-06T17:32:26.944Z,96352.13
2024-01-06T17:34:56.468Z,96350.50
2024-01-06T17:37:23.315Z,96357.09
2024-01-06T17:39:49.961Z,96349.63
2024-01-06T17:42:19.573Z,96347.69
2024-01-06T17:44:47.376Z,96356.69
2024-01-06T17:47:18.116Z,96338.66
2024-01-06T17:49:44.754Z,96344.09
2024-01-06T17:52:12.619Z,96342.34
2024-01-06T17:54:39.813Z,96334.97
2024-01-06T17:57:06.835Z,96346.03
2024-01-06T17:59:36.213Z,96330.34
2024-01-06T18:02:02.978Z,96322.56
2024-01-06T18:04:29.687Z,96310.34
2024-01-06T18:06:56.658Z,96315.38
2024-01-06T18:09:23.527Z,96311.72
2024-01-06T18:11:50.406Z,96301.72
2024-01-06T18:14:17.447Z,96309.66
2024-01-06T18:16:47.111Z,96299.66
2024-01-06T18:19:14.057Z,96295.28
2024-01-06T18:21:40.720Z,96296.28
2024-01-06T18:24:07.386Z,96290.66
2024-01-06T18:26:34.139Z,96277.66
2024-01-06T18:29:06.324Z,96268.84
2024-01-06T18:31:32.996Z,96269.97
2024-01-06T18:34:00.554Z,96253.88
2024-01-06T18:36:27.357Z,96257.59
2024-01-06T18:38:54.212Z,96252.13
2024-01-06T18:41:20.822Z,96252.91
2024-01-06T18:43:47.482Z,96245.28
2024-01-06T18:46:14.268Z,96222.00
2024-01-06T18:48:41.179Z,96224.72
2024-01-06T18:51:07.840Z,96219.63
2024-01-06T18:53:36.333Z,96214.47
2024-01-06T18:56:04.244Z,96218.97
2024-01-06T18:58:30.838Z,96220.53
2024-01-06T19:00:57.617Z,96207.50
2024-01-06T19:03:24.398Z,96186.66
2024-01-06T19:05:51.069Z,96174.41
2024-01-06T19:08:17.854Z,96168.03
2024-01-06T19:10:44.440Z,96165.13
2024-01-06T19:13:11.059Z,96164.75
2024-01-06T19:15:40.748Z,96167.00
2024-01-06T19:18:07.525Z,96162.44
2024-01-06T19:20:34.214Z,96141.44
2024-01-06T19:23:06.996Z,96112.94
2024-01-06T19:25:36.996Z,96135.34
2024-01-06T19:28:03.761Z,96124.28
2024-01-06T19:30:30.554Z,96127.38
2024-01-06T19:32:57.336Z,96122.31
2024-01-06T19:35:23.980Z,96110.72
2024-01-06T19:37:50.744Z,96098.00
2024-01-06T19:40:19.630Z,96089.56
2024-01-06T19:42:51.907Z,96084.59
2024-01-06T19:45:19.176Z,96071.84
2024-01-06T19:47:46.257Z,96062.22
2024-01-06T19:50:13.232Z,96056.56
2024-01-06T19:52:39.889Z,96058.16
2024-01-06T19:55:11.275Z,96054.41
2024-01-06T19:57:38.140Z,96045.00
2024-01-06T20:00:05.892Z,96041.91
2024-01-06T20:02:32.480Z,96024.53
2024-01-06T20:04:59.212Z,96024.59
2024-01-06T20:07:30.004Z,96006.34
2024-01-06T20:09:58.201Z,95987.13
2024-01-06T20:12:25.999Z,95991.22
2024-01-06T20:14:58.471Z,95980.69
2024-01-06T20:17:25.835Z,95981.97
2024-01-06T20:19:53.328Z,95976.91
2024-01-06T20:22:20.035Z,95963.59
2024-01-06T20:24:46.734Z,95954.34
2024-01-06T20:27:13.650Z,95943.97
2024-01-06T20:29:40.196Z,95931.28
2024-01-06T20:32:07.465Z,95940.00
2024-01-06T20:34:34.250Z,95949.16
2024-01-06T20:37:01.248Z,95962.00
2024-01-06T20:39:27.986Z,95951.25
2024-01-06T20:41:54.680Z,95965.91
2024-01-06T20:44:21.850Z,95954.41
2024-01-06T20:46:49.820Z,95954.88
2024-01-06T20:49:16.547Z,95934.38
2024-01-06T20:51:43.332Z,95934.91
2024-01-06T20:54:09.967Z,95945.84
2024-01-06T20:56:37.582Z,95959.19
2024-01-06T20:59:04.219Z,95951.25
2024-01-06T21:01:30.990Z,95943.09
2024-01-06T21:03:57.893Z,95941.31
2024-01-06T21:06:24.821Z,95945.63
2024-01-06T21:08:51.533Z,95930.81
2024-01-06T21:11:18.216Z,95932.34
2024-01-06T21:13:44.887Z,95951.03
2024-01-06T21:16:11.672Z,95942.59
2024-01-06T21:18:38.889Z,95940.03
2024-01-06T21:21:06.145Z,95934.13
2024-01-06T21:23:40.464Z,95945.69
2024-01-06T21:26:12.910Z,95915.44
2024-01-06T21:28:39.747Z,95924.19
2024-01-06T21:31:12.935Z,95908.53
2024-01-06T21:33:39.833Z,95924.22
2024-01-06T21:36:07.425Z,95894.97
2024-01-06T21:38:34.067Z,95880.94
2024-01-06T21:41:01.852Z,95868.38
2024-01-06T21:43:28.440Z,95874.53
2024-01-06T21:45:55.911Z,95874.53
2024-01-06T21:48:22.773Z,95880.16
2024-01-06T21:50:49.729Z,95872.44
2024-01-06T21:53:16.544Z,95887.56
2024-01-06T21:55:44.191Z,95860.16
2024-01-06T21:58:10.917Z,95868.63
2024-01-06T22:00:37.624Z,95872.50
2024-01-06T22:03:05.674Z,95872.69
2024-01-06T22:05:32.386Z,95866.06
2024-01-06T22:07:59.065Z,95862.47
2024-01-06T22:10:33.295Z,95850.41
2024-01-06T22:13:01.398Z,95835.03
2024-01-06T22:15:28.242Z,95819.09
2024-01-06T22:17:56.036Z,95834.00
2024-01-06T22:20:22.997Z,95824.56
2024-01-06T22:22:49.915Z,95818.91
2024-01-06T22:25:16.849Z,95816.09
2024-01-06T22:27:43.585Z,95809.19
2024-01-06T22:30:12.021Z,95803.56
2024-01-06T22:32:39.245Z,95792.06
2024-01-06T22:35:06.322Z,95785.88
2024-01-06T22:37:32.996Z,95770.19
2024-01-06T22:39:59.674Z,95765.69
2024-01-06T22:42:26.529Z,95776.16
2024-01-06T22:44:53.060Z,95784.88
2024-01-06T22:47:19.909Z,95763.06
2024-01-06T22:49:46.445Z,95760.78
2024-01-06T22:52:13.321Z,95758.16
2024-01-06T22:54:43.472Z,95748.19
2024-01-06T22:57:10.057Z,95749.53
2024-01-06T22:59:36.957Z,95747.94
2024-01-06T23:02:03.641Z,95731.47
2024-01-06T23:04:30.451Z,95726.34
2024-01-06T23:06:57.798Z,95722.97
2024-01-06T23:09:25.220Z,95725.19
2024-01-06T23:11:52.202Z,95711.75
2024-01-06T23:14:18.823Z,95694.88
2024-01-06T23:16:48.461Z,95695.66
2024-01-06T23:19:15.697Z,95685.16
2024-01-06T23:21:44.054Z,95668.28
2024-01-06T23:24:13.962Z,95656.56
2024-01-06T23:26:40.612Z,95666.06
2024-01-06T23:29:10.341Z,95662.66
2024-01-06T23:31:37.860Z,95659.91
2024-01-06T23:34:05.778Z,95654.53
2024-01-06T23:36:37.030Z,95646.09
2024-01-06T23:39:04.799Z,95643.03
2024-01-06T23:41:31.394Z,95639.78
2024-01-06T23:43:58.026Z,95632.63
2024-01-06T23:49:15.845Z,95635.25
2024-01-06T23:51:42.549Z,95627.59
2024-01-06T23:54:09.173Z,95619.16
2024-01-06T23:56:38.912Z,95623.22
2024-01-06T23:59:05.522Z,95606.53
